Peotone Weather

Nearby METAR Reports

 

KIGQ - Lansing, Illinois, USA
Distance from station: NE 19mi, 30km
Updated: Wed, 04-Aug-2021 11:35pm CDT
Clear
Clear
 Wind from calm
Wind: Calm
Temperature: 64°F , 18°C
Dew Point: 61°F , 16°C
Humidity: 88%
Barometer: 30.13 inHg , 1020.3 hPa
Clouds: Clear
Visibility: 10 miles , 16 km
2021/08/05 04:35 KIGQ 050435Z AUTO 00000KT 10SM CLR 18/16 A3013 RMK AO2 T01830157
KIKK - Kankakee, Illinois, USA
Distance from station: S 19mi, 30km
Updated: Wed, 04-Aug-2021 11:34pm CDT
Clear
Clear
 Wind from calm
Wind: Calm
Temperature: 64°F , 18°C
Dew Point: 61°F , 16°C
Humidity: 88%
Barometer: 30.14 inHg , 1020.7 hPa
Clouds: Clear
Visibility: 10 miles , 16 km
2021/08/05 04:34 KIKK 050434Z AUTO 00000KT 10SM CLR 18/16 A3014 RMK AO2
 
KSJC - Joliet, Illinois, USA
Distance from station: WNW 24mi, 38km
Updated: Wed, 04-Aug-2021 10:53pm CDT
NOT Current
Few Clouds
Few Clouds
 Wind from N
Wind: N 8 mph , 13 km/h
Temperature: 63°F , 17°C
Dew Point: 55°F , 13°C
Humidity: 77%
Barometer: 29.97 inHg , 1014.9 hPa
Clouds: Few Clouds
Visibility: 10 miles , 16 km
Cloud details: Few Clouds 1400 ft
2021/08/05 03:53 KSJC 050353Z 36007KT 10SM FEW014 17/13 A2997 RMK AO2 SLP148 T01670128
KLOT - Romeoville, Illinois, USA
Distance from station: NW 26mi, 41km
Updated: Wed, 04-Aug-2021 11:35pm CDT
Clear
Clear
 Wind from calm
Wind: Calm
Temperature: 68°F , 20°C
Dew Point: 61°F , 16°C
Humidity: 78%
Barometer: 30.12 inHg , 1020 hPa
Clouds: Clear
Visibility: 10 miles , 16 km
2021/08/05 04:35 KLOT 050435Z AUTO 00000KT 10SM CLR 20/16 A3012 RMK AO2 T02020162
 
KMDW - Midway Airport Chicago, Illinois, USA
Distance from station: N 31mi, 50km
Updated: Wed, 04-Aug-2021 10:53pm CDT
NOT Current
Clear
Clear
 Wind from SE
Wind: SE 3 mph , 6 km/h
Temperature: 73°F , 23°C
Dew Point: 55°F , 13°C
Humidity: 53%
Barometer: 30.12 inHg , 1020 hPa
Clouds: Clear
Visibility: 10 miles , 16 km
2021/08/05 03:53 KMDW 050353Z 13003KT 10SM CLR 23/13 A3012 RMK AO2 SLP189 T02330133 $
KC09 - Morris, Illinois, USA
Distance from station: W 34mi, 54km
Updated: Wed, 04-Aug-2021 11:35pm CDT
Clear
Clear
 Wind from calm
Wind: Calm
Temperature: 68°F , 20°C
Dew Point: 66°F , 19°C
Humidity: 94%
Barometer: 30.11 inHg , 1019.6 hPa
Clouds: Clear
Visibility: 7 miles , 11 km
2021/08/05 04:35 KC09 050435Z AUTO 00000KT 7SM CLR 20/19 A3011 RMK AO2 T02030188

Metar display script from Saratoga-Weather.org